Time;durP1;ratioP1;P1;durP2;ratioP2;P2;SDS_P1;SDS_P2;PMS_P1;PMS_P2;Temp;Humidity;BMP_temperature;BMP_pressure;BME280_temperature;BME280_humidity;BME280_pressure;Samples;Min_cycle;Max_cycle;Signal;HPM_P1;HPM_P2
2024/04/16 00:00:37;;;;;;;2.20;0.90;;;15.80;78.30;;;;;;5306396;27;19998;-84
2024/04/16 00:03:03;;;;;;;1.38;0.75;;;15.70;78.20;;;;;;5306562;26;20328;-83
2024/04/16 00:05:29;;;;;;;0.95;0.50;;;15.70;78.10;;;;;;5304316;27;20073;-82
2024/04/16 00:07:55;;;;;;;1.55;0.60;;;15.70;78.20;;;;;;5306760;27;19997;-83
2024/04/16 00:10:21;;;;;;;1.95;0.52;;;15.70;78.20;;;;;;5305902;27;19998;-83
2024/04/16 00:12:48;;;;;;;1.02;0.60;;;15.70;78.30;;;;;;5304589;27;20010;-83
2024/04/16 00:15:14;;;;;;;2.22;0.60;;;15.80;78.30;;;;;;5308013;26;19998;-83
2024/04/16 00:17:39;;;;;;;1.05;0.60;;;15.70;78.10;;;;;;5340885;26;20005;-82
2024/04/16 00:20:06;;;;;;;2.15;0.60;;;15.70;78.10;;;;;;5339245;26;20074;-83
2024/04/16 00:22:35;;;;;;;1.35;0.60;;;15.70;78.00;;;;;;5340562;26;20025;-81
2024/04/16 00:25:02;;;;;;;1.42;0.50;;;15.70;78.00;;;;;;5341769;26;19998;-81
2024/04/16 00:27:28;;;;;;;1.27;0.50;;;15.70;77.90;;;;;;5344111;26;20009;-83
2024/04/16 00:29:54;;;;;;;1.10;0.70;;;15.80;77.80;;;;;;5343633;26;20090;-81
2024/04/16 00:32:20;;;;;;;1.65;0.43;;;15.70;77.50;;;;;;5342096;26;20007;-82
2024/04/16 00:34:45;;;;;;;0.93;0.40;;;15.70;77.40;;;;;;5341459;26;20005;-83
2024/04/16 00:37:11;;;;;;;0.77;0.40;;;15.70;77.60;;;;;;5344430;26;19997;-83
2024/04/16 00:39:37;;;;;;;1.85;0.47;;;15.80;77.30;;;;;;5341887;26;20001;-81
2024/04/16 00:42:03;;;;;;;1.85;0.50;;;15.60;77.20;;;;;;5344416;26;20007;-83
2024/04/16 00:44:29;;;;;;;2.13;0.50;;;15.70;77.30;;;;;;5343566;26;20023;-85
2024/04/16 00:46:55;;;;;;;1.73;0.43;;;15.70;77.20;;;;;;5344163;26;19997;-83
2024/04/16 00:49:21;;;;;;;0.95;0.50;;;15.70;77.20;;;;;;5341994;26;19997;-82
2024/04/16 00:51:47;;;;;;;1.05;0.40;;;15.70;77.10;;;;;;5343900;26;20003;-84
2024/04/16 00:54:14;;;;;;;0.75;0.50;;;15.50;76.70;;;;;;5344212;26;20824;-85
2024/04/16 00:56:40;;;;;;;0.28;0.28;;;15.60;76.80;;;;;;5341816;26;20016;-83
2024/04/16 00:59:06;;;;;;;0.90;0.40;;;15.70;76.80;;;;;;5341873;26;19997;-84
2024/04/16 01:01:32;;;;;;;0.65;0.30;;;15.60;77.30;;;;;;5343856;26;20065;-83
2024/04/16 01:03:58;;;;;;;1.27;0.30;;;15.70;77.00;;;;;;5343639;26;20009;-85
2024/04/16 01:06:25;;;;;;;1.05;0.47;;;15.60;76.90;;;;;;5343281;26;20001;-85
2024/04/16 01:08:50;;;;;;;0.82;0.30;;;15.60;76.90;;;;;;5341972;26;20883;-85
2024/04/16 01:11:26;;;;;;;1.08;0.50;;;15.60;77.00;;;;;;5343206;26;20000;-84
2024/04/16 01:13:55;;;;;;;0.43;0.30;;;15.60;77.00;;;;;;5341723;26;20001;-84
2024/04/16 01:16:21;;;;;;;2.13;0.60;;;15.60;77.00;;;;;;5343173;26;20005;-84
2024/04/16 01:18:47;;;;;;;1.65;0.50;;;15.60;77.10;;;;;;5341635;26;20005;-83
2024/04/16 01:21:13;;;;;;;1.33;0.70;;;15.60;77.00;;;;;;5343003;26;20013;-82
2024/04/16 01:23:38;;;;;;;1.80;0.70;;;15.70;77.10;;;;;;5343177;26;20001;-83
2024/04/16 01:26:04;;;;;;;0.85;0.60;;;15.60;77.00;;;;;;5341751;26;20068;-84
2024/04/16 01:28:30;;;;;;;0.63;0.47;;;15.70;77.10;;;;;;5341784;26;20012;-85
2024/04/16 01:30:55;;;;;;;1.10;0.60;;;15.60;77.10;;;;;;5343153;26;20013;-82
2024/04/16 01:33:21;;;;;;;1.30;0.80;;;15.70;77.10;;;;;;5342887;26;20075;-85
2024/04/16 01:35:46;;;;;;;2.00;0.90;;;15.50;77.00;;;;;;5342682;26;20473;-84
2024/04/16 01:38:12;;;;;;;1.60;0.95;;;15.60;77.10;;;;;;5343078;26;19997;-84
2024/04/16 01:40:37;;;;;;;2.08;0.88;;;15.60;77.20;;;;;;5343240;26;20369;-83
2024/04/16 01:43:03;;;;;;;1.35;0.80;;;15.60;77.20;;;;;;5341089;26;20099;-84
2024/04/16 01:45:29;;;;;;;2.45;1.20;;;15.60;77.30;;;;;;5341310;26;20011;-84
2024/04/16 01:47:54;;;;;;;1.45;1.10;;;15.70;77.40;;;;;;5341572;26;20431;-84
2024/04/16 01:50:20;;;;;;;2.15;1.25;;;15.60;77.30;;;;;;5342490;26;20000;-85
2024/04/16 01:52:45;;;;;;;1.30;1.02;;;15.60;77.30;;;;;;5343303;26;20001;-84
2024/04/16 01:55:11;;;;;;;1.92;1.00;;;15.60;77.20;;;;;;5341166;26;20091;-85
2024/04/16 01:57:37;;;;;;;1.70;1.00;;;15.60;77.30;;;;;;5343056;26;19997;-84
2024/04/16 02:00:03;;;;;;;2.75;1.52;;;15.60;77.30;;;;;;5341128;26;19996;-85
2024/04/16 02:02:31;;;;;;;2.65;1.50;;;15.60;77.30;;;;;;5342994;26;20461;-85
2024/04/16 02:04:57;;;;;;;1.88;1.38;;;15.60;77.30;;;;;;5342402;26;20456;-84
2024/04/16 02:07:22;;;;;;;2.33;1.30;;;15.60;77.40;;;;;;5342584;26;19997;-85
2024/04/16 02:09:48;;;;;;;2.88;1.48;;;15.60;77.40;;;;;;5342484;26;20449;-84
2024/04/16 02:12:13;;;;;;;3.22;1.48;;;15.60;77.30;;;;;;5342829;26;20408;-85
2024/04/16 02:14:39;;;;;;;4.28;1.70;;;15.60;77.20;;;;;;5340929;26;20001;-84
2024/04/16 02:17:04;;;;;;;2.53;1.42;;;15.60;77.30;;;;;;5341015;26;19997;-85
2024/04/16 02:19:30;;;;;;;3.53;1.88;;;15.60;77.20;;;;;;5342311;26;20012;-84
2024/04/16 02:21:56;;;;;;;3.08;1.67;;;15.60;77.20;;;;;;5340884;26;20370;-83
2024/04/16 02:24:21;;;;;;;4.65;1.85;;;15.60;77.30;;;;;;5340760;26;20011;-84
2024/04/16 02:26:47;;;;;;;3.17;1.77;;;15.50;77.20;;;;;;5342469;26;20001;-84
2024/04/16 02:29:12;;;;;;;3.70;1.90;;;15.50;77.30;;;;;;5340439;26;20457;-84
2024/04/16 02:31:38;;;;;;;3.28;1.65;;;15.60;77.20;;;;;;5342352;26;20063;-85
2024/04/16 02:34:03;;;;;;;4.93;1.58;;;15.60;77.20;;;;;;5340153;26;19997;-83
2024/04/16 02:36:29;;;;;;;6.20;2.10;;;15.60;77.20;;;;;;5340858;26;20020;-85
2024/04/16 02:38:54;;;;;;;4.47;1.98;;;15.50;77.40;;;;;;5342007;26;19997;-84
2024/04/16 02:41:20;;;;;;;3.58;1.73;;;15.40;77.10;;;;;;5342363;26;20012;-85
2024/04/16 02:43:46;;;;;;;3.60;1.73;;;15.60;77.80;;;;;;5341901;26;20285;-83
2024/04/16 02:46:11;;;;;;;4.78;1.70;;;15.60;77.20;;;;;;5342298;26;20004;-85
2024/04/16 02:48:37;;;;;;;4.28;1.80;;;15.50;77.10;;;;;;5339025;26;19997;-83
2024/04/16 02:51:03;;;;;;;4.07;2.00;;;15.60;77.20;;;;;;5341953;26;19997;-86
2024/04/16 02:53:28;;;;;;;5.07;1.98;;;15.50;77.20;;;;;;5342292;26;19997;-82
2024/04/16 02:55:54;;;;;;;4.88;2.00;;;15.50;78.20;;;;;;5341891;26;20011;-84
2024/04/16 02:58:19;;;;;;;5.57;2.05;;;15.50;77.10;;;;;;5340247;26;20016;-81
2024/04/16 03:00:45;;;;;;;5.15;2.10;;;15.50;77.00;;;;;;5341668;26;20070;-83
2024/04/16 03:03:12;;;;;;;5.60;2.00;;;15.50;77.10;;;;;;5340283;26;20005;-81
2024/04/16 03:05:37;;;;;;;6.15;2.20;;;15.50;76.90;;;;;;5341997;26;19996;-82
2024/04/16 03:08:03;;;;;;;4.75;1.88;;;15.60;77.00;;;;;;5341713;26;20348;-82
2024/04/16 03:10:29;;;;;;;6.07;1.90;;;15.50;76.80;;;;;;5342214;26;19993;-82
2024/04/16 03:12:54;;;;;;;6.25;1.95;;;15.50;76.80;;;;;;5342195;26;20001;-82
2024/04/16 03:15:20;;;;;;;6.32;2.08;;;15.50;76.80;;;;;;5342172;26;20033;-83
2024/04/16 03:17:45;;;;;;;4.15;1.98;;;15.50;76.70;;;;;;5343043;26;20008;-83
2024/04/16 03:20:17;;;;;;;3.95;1.80;;;15.50;76.70;;;;;;5344341;26;19997;-84
2024/04/16 03:22:45;;;;;;;5.55;1.70;;;15.40;76.70;;;;;;5342295;26;20035;-85
2024/04/16 03:25:12;;;;;;;4.43;1.70;;;15.50;76.80;;;;;;5340928;26;20040;-84
2024/04/16 03:27:38;;;;;;;6.03;1.80;;;15.50;77.00;;;;;;5343829;26;20017;-82
2024/04/16 03:30:07;;;;;;;4.88;1.95;;;15.50;76.80;;;;;;5343609;26;20005;-86
2024/04/16 03:32:36;;;;;;;5.82;2.20;;;15.50;76.90;;;;;;5311450;26;20017;-84
2024/04/16 03:35:02;;;;;;;4.65;1.80;;;15.50;76.90;;;;;;5311036;26;20451;-84
2024/04/16 03:37:31;;;;;;;5.45;2.00;;;15.50;76.90;;;;;;5327555;26;20008;-82
2024/04/16 03:39:56;;;;;;;5.50;1.88;;;15.50;76.90;;;;;;5343425;26;20024;-85
2024/04/16 03:42:25;;;;;;;5.28;2.03;;;15.30;76.80;;;;;;5343971;26;20001;-84
2024/04/16 03:44:54;;;;;;;5.10;2.10;;;15.50;77.00;;;;;;5344662;26;20309;-84
2024/04/16 03:47:22;;;;;;;6.07;1.92;;;15.50;77.00;;;;;;5344075;26;20008;-82
2024/04/16 03:49:57;;;;;;;5.28;1.98;;;15.50;77.00;;;;;;5343772;26;20446;-83
2024/04/16 03:52:30;;;;;;;5.78;1.80;;;15.50;76.90;;;;;;5343112;26;20001;-84
2024/04/16 03:54:56;;;;;;;4.18;2.00;;;15.30;76.80;;;;;;5345113;26;19997;-83
2024/04/16 03:57:22;;;;;;;6.10;1.98;;;15.40;76.80;;;;;;5341975;26;20001;-80
2024/04/16 04:02:39;;;;;;;4.38;1.70;;;15.40;76.90;;;;;;5344297;26;20033;-85
2024/04/16 04:05:07;;;;;;;5.38;1.75;;;15.40;76.70;;;;;;5341800;26;19997;-82
2024/04/16 04:07:32;;;;;;;6.05;1.90;;;15.40;76.20;;;;;;5341567;26;20012;-84
2024/04/16 04:09:58;;;;;;;4.68;1.80;;;15.40;75.30;;;;;;5343156;26;20602;-86
2024/04/16 04:12:23;;;;;;;8.15;1.90;;;15.40;73.90;;;;;;5343491;26;20001;-84
2024/04/16 04:14:49;;;;;;;7.32;1.88;;;15.40;73.60;;;;;;5344638;26;20464;-82
2024/04/16 04:17:15;;;;;;;7.13;1.85;;;15.40;73.70;;;;;;5341894;26;20078;-81
2024/04/16 04:19:40;;;;;;;5.95;1.70;;;15.30;73.10;;;;;;5343652;26;20001;-82
2024/04/16 04:22:06;;;;;;;5.60;1.70;;;15.40;73.10;;;;;;5342716;26;20008;-83
2024/04/16 04:24:31;;;;;;;7.93;1.88;;;15.40;73.20;;;;;;5342149;26;20001;-82
2024/04/16 04:26:57;;;;;;;7.13;1.80;;;15.40;73.40;;;;;;5340114;26;20001;-81
2024/04/16 04:29:22;;;;;;;8.68;2.10;;;15.30;73.40;;;;;;5342208;26;20044;-82
2024/04/16 04:31:48;;;;;;;7.75;1.77;;;15.40;73.40;;;;;;5340556;26;20013;-80
2024/04/16 04:34:13;;;;;;;5.65;2.00;;;15.40;73.60;;;;;;5340303;26;20001;-82
2024/04/16 04:36:39;;;;;;;6.32;2.20;;;15.40;73.60;;;;;;5341750;26;20014;-80
2024/04/16 04:39:04;;;;;;;6.45;2.05;;;15.40;74.00;;;;;;5341764;26;20783;-82
2024/04/16 04:41:30;;;;;;;6.45;1.58;;;15.40;74.40;;;;;;5341481;26;20001;-80
2024/04/16 04:43:56;;;;;;;7.22;1.90;;;15.40;74.10;;;;;;5340449;26;20005;-81
2024/04/16 04:46:22;;;;;;;14.18;2.25;;;15.40;74.20;;;;;;5340272;26;20461;-81
2024/04/16 04:48:48;;;;;;;11.05;2.00;;;15.30;74.30;;;;;;5340460;26;19997;-81
2024/04/16 04:51:14;;;;;;;12.48;2.08;;;15.30;74.40;;;;;;5341470;26;20003;-79
2024/04/16 04:53:40;;;;;;;11.20;2.20;;;15.40;74.70;;;;;;5340214;26;20024;-81
2024/04/16 04:56:07;;;;;;;10.20;1.90;;;15.40;74.70;;;;;;5342077;26;19993;-83
2024/04/16 04:58:33;;;;;;;7.93;1.92;;;15.40;74.90;;;;;;5340400;26;20004;-81
2024/04/16 05:01:00;;;;;;;8.38;2.00;;;15.40;75.00;;;;;;5339489;26;20111;-81
2024/04/16 05:03:25;;;;;;;11.65;2.45;;;15.30;75.00;;;;;;5341956;26;20393;-82
2024/04/16 05:05:51;;;;;;;7.85;2.20;;;15.30;75.10;;;;;;5341722;26;20001;-84
2024/04/16 05:08:18;;;;;;;7.72;1.80;;;15.40;75.20;;;;;;5341367;26;19996;-83
2024/04/16 05:10:51;;;;;;;6.97;2.30;;;15.30;75.20;;;;;;5341145;26;20032;-84
2024/04/16 05:13:17;;;;;;;7.43;2.10;;;15.30;75.00;;;;;;5343825;26;19993;-82
2024/04/16 05:15:45;;;;;;;6.28;2.00;;;15.40;75.00;;;;;;5344229;26;20341;-85
2024/04/16 05:18:11;;;;;;;6.22;2.08;;;15.30;75.10;;;;;;5343480;26;20304;-83
2024/04/16 05:20:37;;;;;;;6.88;2.00;;;15.20;75.10;;;;;;5343720;26;20442;-82
2024/04/16 05:23:03;;;;;;;6.15;2.00;;;15.40;75.50;;;;;;5345112;26;19992;-80
2024/04/16 05:25:28;;;;;;;7.30;2.20;;;15.30;75.00;;;;;;5343890;26;19989;-83
2024/04/16 05:27:54;;;;;;;5.75;2.28;;;15.40;75.20;;;;;;5345572;26;20004;-83
2024/04/16 05:30:20;;;;;;;4.93;2.20;;;15.40;75.10;;;;;;5345773;26;20345;-84
2024/04/16 05:32:47;;;;;;;8.25;2.30;;;15.30;75.40;;;;;;5343534;26;19993;-83
2024/04/16 05:35:13;;;;;;;6.18;2.13;;;15.40;75.80;;;;;;5345270;26;20004;-80
2024/04/16 05:37:39;;;;;;;5.75;2.22;;;15.40;75.50;;;;;;5345850;26;19997;-82
2024/04/16 05:40:05;;;;;;;5.72;2.10;;;15.30;75.50;;;;;;5345326;26;19989;-81
2024/04/16 05:42:31;;;;;;;4.35;2.13;;;15.40;75.60;;;;;;5344003;26;20000;-82
2024/04/16 05:44:56;;;;;;;5.28;2.03;;;15.40;75.70;;;;;;5343876;26;19993;-82
2024/04/16 05:47:22;;;;;;;6.97;2.17;;;15.40;75.70;;;;;;5346047;26;20009;-81
2024/04/16 05:49:47;;;;;;;5.38;2.10;;;15.50;75.90;;;;;;5342952;26;19993;-82
2024/04/16 05:52:13;;;;;;;4.65;2.00;;;15.40;76.00;;;;;;5344077;26;20005;-82
2024/04/16 05:54:38;;;;;;;6.20;2.05;;;15.50;76.30;;;;;;5343743;26;20004;-82
2024/04/16 05:57:05;;;;;;;5.43;2.30;;;15.50;76.50;;;;;;5344123;26;19993;-84
2024/04/16 05:59:31;;;;;;;6.10;2.40;;;15.40;76.60;;;;;;5344442;26;20074;-81
2024/04/16 06:01:57;;;;;;;5.82;2.10;;;15.40;76.70;;;;;;5345091;26;20004;-84
2024/04/16 06:04:22;;;;;;;5.57;1.92;;;15.50;76.90;;;;;;5344419;26;20536;-81
2024/04/16 06:06:48;;;;;;;4.80;2.30;;;15.50;76.90;;;;;;5343213;26;20025;-83
2024/04/16 06:09:14;;;;;;;4.63;1.83;;;15.40;76.90;;;;;;5343867;26;19997;-81
2024/04/16 06:11:40;;;;;;;4.93;1.90;;;15.50;77.10;;;;;;5345097;26;20034;-82
2024/04/16 06:14:06;;;;;;;5.40;1.95;;;15.40;77.10;;;;;;5343421;26;19989;-82
2024/04/16 06:16:32;;;;;;;4.70;1.98;;;15.40;77.20;;;;;;5342998;26;20404;-84
2024/04/16 06:18:57;;;;;;;4.40;1.90;;;15.50;77.30;;;;;;5343155;26;20579;-83
2024/04/16 06:21:23;;;;;;;5.13;2.05;;;15.30;77.30;;;;;;5343166;26;20025;-82
2024/04/16 06:23:50;;;;;;;5.93;2.20;;;15.50;77.50;;;;;;5346214;26;19993;-83
2024/04/16 06:26:15;;;;;;;3.85;2.13;;;15.40;77.50;;;;;;5343667;26;20352;-82
2024/04/16 06:28:41;;;;;;;4.95;1.83;;;15.50;77.50;;;;;;5343352;26;20460;-82
2024/04/16 06:31:06;;;;;;;4.65;2.08;;;15.40;77.50;;;;;;5342659;26;19993;-81
2024/04/16 06:33:33;;;;;;;4.18;1.90;;;15.50;77.60;;;;;;5345477;26;19996;-82
2024/04/16 06:35:59;;;;;;;4.88;2.00;;;15.50;77.70;;;;;;5342181;26;20326;-81
2024/04/16 06:38:25;;;;;;;3.35;1.70;;;15.50;77.60;;;;;;5344866;26;20028;-83
2024/04/16 06:40:51;;;;;;;4.03;1.90;;;15.50;77.70;;;;;;5342399;26;20284;-83
2024/04/16 06:43:16;;;;;;;3.83;1.70;;;15.50;77.90;;;;;;5344657;26;20005;-83
2024/04/16 06:45:42;;;;;;;4.05;1.80;;;15.40;77.80;;;;;;5344398;26;20338;-81
2024/04/16 06:48:08;;;;;;;3.30;1.83;;;15.60;78.00;;;;;;5343461;26;19995;-83
2024/04/16 06:50:33;;;;;;;3.72;1.90;;;15.50;78.50;;;;;;5342806;26;20381;-82
2024/04/16 06:52:59;;;;;;;4.00;1.85;;;15.50;77.90;;;;;;5343410;26;19993;-83
2024/04/16 06:55:25;;;;;;;4.15;1.80;;;15.40;78.00;;;;;;5342489;26;20454;-80
2024/04/16 06:57:51;;;;;;;4.38;2.00;;;15.40;78.00;;;;;;5342819;26;19993;-81
2024/04/16 07:00:16;;;;;;;4.85;2.13;;;15.50;78.00;;;;;;5344324;26;20004;-81
2024/04/16 07:02:42;;;;;;;3.30;1.77;;;15.50;78.00;;;;;;5344512;26;19997;-82
2024/04/16 07:05:09;;;;;;;3.33;1.90;;;15.40;78.10;;;;;;5342285;26;19993;-83
2024/04/16 07:07:36;;;;;;;2.72;1.55;;;15.40;78.10;;;;;;5342003;26;20007;-82
2024/04/16 07:10:02;;;;;;;4.13;2.13;;;15.50;78.20;;;;;;5343969;26;20345;-84
2024/04/16 07:12:28;;;;;;;3.97;1.70;;;15.50;78.20;;;;;;5344216;26;19993;-83
2024/04/16 07:14:53;;;;;;;3.90;1.90;;;15.60;78.30;;;;;;5342662;26;19995;-83
2024/04/16 07:17:19;;;;;;;4.35;2.03;;;15.50;78.20;;;;;;5343993;26;20801;-82
2024/04/16 07:19:44;;;;;;;3.30;1.73;;;15.50;78.30;;;;;;5342444;26;19992;-83
2024/04/16 07:22:10;;;;;;;3.95;1.98;;;15.50;78.40;;;;;;5343013;26;19993;-83
2024/04/16 07:24:36;;;;;;;4.38;1.88;;;15.50;78.40;;;;;;5344332;26;20062;-83
2024/04/16 07:27:01;;;;;;;3.80;1.95;;;15.60;78.40;;;;;;5341784;26;20333;-82
2024/04/16 07:29:27;;;;;;;3.42;1.95;;;15.50;78.50;;;;;;5344196;26;20001;-83
2024/04/16 07:31:52;;;;;;;4.43;1.90;;;15.60;78.60;;;;;;5343934;26;20004;-82
2024/04/16 07:34:18;;;;;;;2.97;1.80;;;15.60;78.50;;;;;;5344401;26;20316;-83
2024/04/16 07:36:43;;;;;;;3.65;1.70;;;15.50;78.50;;;;;;5343399;26;20044;-81
2024/04/16 07:39:10;;;;;;;2.75;1.70;;;15.50;78.60;;;;;;5342705;26;20032;-81
2024/04/16 07:41:36;;;;;;;3.78;1.90;;;15.40;78.50;;;;;;5343570;26;19997;-84
2024/04/16 07:44:01;;;;;;;3.45;1.90;;;15.40;78.50;;;;;;5346219;26;20446;-83
2024/04/16 07:46:27;;;;;;;4.60;1.92;;;15.50;78.50;;;;;;5343590;26;20436;-82
2024/04/16 07:48:52;;;;;;;3.25;1.73;;;15.40;78.60;;;;;;5342674;26;19992;-84
2024/04/16 07:51:18;;;;;;;3.72;1.80;;;15.50;78.70;;;;;;5341826;26;20008;-82
2024/04/16 07:53:43;;;;;;;3.88;1.65;;;15.50;78.70;;;;;;5343201;26;20004;-83
2024/04/16 07:56:12;;;;;;;3.53;1.63;;;15.50;78.70;;;;;;5343523;26;20807;-82
2024/04/16 07:58:37;;;;;;;3.58;2.03;;;15.40;78.70;;;;;;5341811;26;20011;-84
2024/04/16 08:01:03;;;;;;;3.63;1.70;;;15.50;78.60;;;;;;5342740;26;20009;-83
2024/04/16 08:03:29;;;;;;;2.83;1.63;;;15.50;78.80;;;;;;5342766;26;20007;-81
2024/04/16 08:05:55;;;;;;;4.13;1.70;;;15.50;78.80;;;;;;5343935;26;20074;-83
2024/04/16 08:08:20;;;;;;;3.47;1.98;;;15.50;78.80;;;;;;5343526;26;20066;-82
2024/04/16 08:10:46;;;;;;;2.80;1.73;;;15.50;78.90;;;;;;5343047;26;20005;-83
2024/04/16 08:13:12;;;;;;;3.67;1.77;;;15.50;78.90;;;;;;5344469;26;20074;-84
2024/04/16 08:15:38;;;;;;;2.72;1.60;;;15.60;79.00;;;;;;5342286;26;19993;-83
2024/04/16 08:18:04;;;;;;;3.38;1.70;;;15.40;78.90;;;;;;5341662;26;19997;-82
2024/04/16 08:20:30;;;;;;;3.22;1.73;;;15.50;79.00;;;;;;5340953;26;20453;-83
2024/04/16 08:22:56;;;;;;;3.63;1.60;;;15.50;79.00;;;;;;5343457;26;20001;-82
2024/04/16 08:25:22;;;;;;;2.67;1.50;;;15.50;79.00;;;;;;5343654;26;19996;-82
2024/04/16 08:27:47;;;;;;;2.75;1.70;;;15.30;79.00;;;;;;5343096;26;20008;-82
2024/04/16 08:30:13;;;;;;;2.42;1.42;;;15.30;79.00;;;;;;5341607;26;20001;-81
2024/04/16 08:32:38;;;;;;;4.53;1.67;;;15.50;79.10;;;;;;5343291;26;20221;-81
2024/04/16 08:35:04;;;;;;;3.58;1.80;;;15.40;79.10;;;;;;5341352;26;20011;-81
2024/04/16 08:37:30;;;;;;;3.28;1.40;;;15.40;79.10;;;;;;5341241;26;20315;-80
2024/04/16 08:39:56;;;;;;;2.85;1.50;;;15.30;79.10;;;;;;5342535;26;20008;-82
2024/04/16 08:42:22;;;;;;;2.15;1.33;;;15.50;79.30;;;;;;5342474;26;19997;-80
2024/04/16 08:44:48;;;;;;;2.45;1.40;;;15.50;79.50;;;;;;5342871;26;19997;-82
2024/04/16 08:47:17;;;;;;;2.65;1.45;;;15.50;79.30;;;;;;5345623;26;20073;-80
2024/04/16 08:49:44;;;;;;;3.22;1.40;;;15.50;79.30;;;;;;5346294;26;19997;-80
2024/04/16 08:52:13;;;;;;;2.42;1.50;;;15.40;79.40;;;;;;5344179;26;20025;-81
2024/04/16 08:54:41;;;;;;;1.65;1.30;;;15.40;79.30;;;;;;5345917;26;20453;-82
2024/04/16 08:57:06;;;;;;;2.35;1.42;;;15.50;79.40;;;;;;5343939;26;20008;-84
2024/04/16 08:59:32;;;;;;;2.50;1.40;;;15.50;79.50;;;;;;5344534;26;20446;-82
2024/04/16 09:02:00;;;;;;;3.17;1.50;;;15.50;79.40;;;;;;5343959;26;19997;-82
2024/04/16 09:04:29;;;;;;;3.13;1.42;;;15.40;79.40;;;;;;5343886;26;20977;-82
2024/04/16 09:06:55;;;;;;;2.28;1.20;;;15.40;79.50;;;;;;5343827;26;19996;-83
2024/04/16 09:09:21;;;;;;;2.63;1.35;;;15.40;79.40;;;;;;5344495;26;20078;-82
2024/04/16 09:11:46;;;;;;;2.28;1.30;;;15.30;79.40;;;;;;5345481;26;20012;-81
2024/04/16 09:14:14;;;;;;;2.95;1.25;;;15.40;79.30;;;;;;5344018;26;19997;-80
2024/04/16 09:16:41;;;;;;;1.42;1.10;;;15.40;79.30;;;;;;5343819;26;20332;-83
2024/04/16 09:19:07;;;;;;;2.60;1.50;;;15.50;79.40;;;;;;5344513;26;20001;-81
2024/04/16 09:21:33;;;;;;;2.45;1.25;;;15.40;79.30;;;;;;5345802;26;20470;-82
2024/04/16 09:24:01;;;;;;;2.10;1.30;;;15.30;79.80;;;;;;5345313;26;20001;-81
2024/04/16 09:26:26;;;;;;;1.80;1.20;;;15.50;79.50;;;;;;5346009;26;20011;-81
2024/04/16 09:28:52;;;;;;;2.08;1.20;;;15.50;79.20;;;;;;5343273;26;19993;-83
2024/04/16 09:31:18;;;;;;;2.47;1.20;;;15.30;79.20;;;;;;5345848;26;20001;-82
2024/04/16 09:33:45;;;;;;;1.73;1.10;;;15.50;79.10;;;;;;5343843;26;19997;-81
2024/04/16 09:36:14;;;;;;;2.45;1.42;;;15.50;79.00;;;;;;5343996;26;20798;-82
2024/04/16 09:38:44;;;;;;;2.13;1.27;;;15.50;78.90;;;;;;5344551;26;19996;-81
2024/04/16 09:41:13;;;;;;;2.08;1.20;;;15.50;79.00;;;;;;5343699;26;20008;-82
2024/04/16 09:43:40;;;;;;;1.77;1.05;;;15.50;78.70;;;;;;5343960;26;20033;-82
2024/04/16 09:46:11;;;;;;;1.75;1.10;;;15.50;79.00;;;;;;5345700;26;20005;-81
2024/04/16 09:48:41;;;;;;;2.95;1.23;;;15.60;79.20;;;;;;5343326;26;20023;-81
2024/04/16 09:51:08;;;;;;;1.83;1.10;;;15.60;79.40;;;;;;5345032;26;20008;-82
2024/04/16 09:53:43;;;;;;;1.70;1.15;;;15.60;79.40;;;;;;5343612;26;19997;-83
2024/04/16 09:56:09;;;;;;;1.48;1.10;;;15.60;79.30;;;;;;5342893;26;20001;-82
2024/04/16 09:58:36;;;;;;;1.77;1.00;;;15.60;79.30;;;;;;5345288;26;19997;-81
2024/04/16 10:01:05;;;;;;;2.58;1.10;;;15.60;79.30;;;;;;5343090;26;20062;-84
2024/04/16 10:03:31;;;;;;;1.75;1.17;;;15.60;79.50;;;;;;5343971;26;20012;-83
2024/04/16 10:05:57;;;;;;;2.03;1.10;;;15.50;79.20;;;;;;5344822;26;20001;-82
2024/04/16 10:08:24;;;;;;;1.67;1.00;;;15.70;79.40;;;;;;5346176;26;20009;-83
2024/04/16 10:10:53;;;;;;;1.52;0.98;;;15.60;79.50;;;;;;5344551;26;20351;-83
2024/04/16 10:13:19;;;;;;;2.05;1.10;;;15.60;79.50;;;;;;5343732;26;19992;-83
2024/04/16 10:15:45;;;;;;;1.77;1.10;;;15.50;79.40;;;;;;5346026;26;20365;-83
2024/04/16 10:18:14;;;;;;;1.95;1.20;;;15.60;79.50;;;;;;5345318;26;19997;-84
2024/04/16 10:20:50;;;;;;;2.30;1.25;;;15.60;79.60;;;;;;5344037;26;20004;-82
2024/04/16 10:23:16;;;;;;;2.55;1.20;;;15.60;79.60;;;;;;5344623;26;20001;-83
2024/04/16 10:25:49;;;;;;;1.52;0.95;;;15.60;79.50;;;;;;5344399;26;20025;-82
2024/04/16 10:28:25;;;;;;;1.02;0.93;;;15.50;79.50;;;;;;5345793;26;19997;-82
2024/04/16 10:31:02;;;;;;;2.08;1.10;;;15.60;80.10;;;;;;5343280;26;19997;-83
2024/04/16 10:33:31;;;;;;;1.80;1.02;;;15.40;79.40;;;;;;5345011;26;20005;-84
2024/04/16 10:35:57;;;;;;;1.17;1.00;;;15.60;79.60;;;;;;5343500;26;20000;-83
2024/04/16 10:38:26;;;;;;;1.33;0.90;;;15.60;79.70;;;;;;5343742;26;20012;-83
2024/04/16 10:40:56;;;;;;;2.05;1.05;;;15.60;79.70;;;;;;5342742;26;19997;-82
2024/04/16 10:43:23;;;;;;;1.40;1.00;;;15.60;79.70;;;;;;5344355;26;20005;-82
2024/04/16 10:45:49;;;;;;;1.73;0.88;;;15.50;79.70;;;;;;5342934;26;19997;-82
2024/04/16 10:48:18;;;;;;;1.25;0.90;;;15.50;79.70;;;;;;5342713;26;19993;-81
2024/04/16 10:50:47;;;;;;;2.35;1.27;;;15.60;79.80;;;;;;5342938;26;20008;-81
2024/04/16 10:53:13;;;;;;;1.48;0.95;;;15.50;79.80;;;;;;5343081;26;19996;-82
2024/04/16 10:55:43;;;;;;;1.77;1.08;;;15.40;79.80;;;;;;5342237;26;20008;-81
2024/04/16 10:58:10;;;;;;;0.88;0.80;;;15.60;80.00;;;;;;5342372;26;20364;-82
2024/04/16 11:00:36;;;;;;;1.25;0.80;;;15.40;79.90;;;;;;5341694;26;20413;-80
2024/04/16 11:03:02;;;;;;;1.40;0.90;;;15.60;79.90;;;;;;5344555;26;20015;-81
2024/04/16 11:05:28;;;;;;;1.75;0.90;;;15.50;79.80;;;;;;5344801;26;20001;-81
2024/04/16 11:07:53;;;;;;;2.15;0.98;;;15.50;79.90;;;;;;5344280;26;20041;-81
2024/04/16 11:10:19;;;;;;;1.38;0.90;;;15.40;79.90;;;;;;5343004;26;20849;-81
2024/04/16 11:12:45;;;;;;;1.50;1.00;;;15.50;80.00;;;;;;5342737;26;20457;-81
2024/04/16 11:15:11;;;;;;;2.28;1.10;;;15.50;80.10;;;;;;5341790;26;20008;-81
2024/04/16 11:17:38;;;;;;;1.20;0.88;;;15.40;80.10;;;;;;5342528;26;20001;-82
2024/04/16 11:20:04;;;;;;;1.52;0.93;;;15.50;80.20;;;;;;5343626;26;20075;-82
2024/04/16 11:22:31;;;;;;;1.60;0.95;;;15.50;80.20;;;;;;5344142;26;20005;-82
2024/04/16 11:24:56;;;;;;;1.88;1.00;;;15.50;80.20;;;;;;5342071;26;20492;-84
2024/04/16 11:27:22;;;;;;;1.10;0.80;;;15.50;80.30;;;;;;5344061;26;19996;-81
2024/04/16 11:29:49;;;;;;;1.58;0.90;;;15.40;80.30;;;;;;5342574;26;20008;-82
2024/04/16 11:32:19;;;;;;;1.20;0.98;;;15.50;80.30;;;;;;5341816;26;20008;-81
2024/04/16 11:34:45;;;;;;;0.90;0.70;;;15.60;80.40;;;;;;5343764;26;19997;-82
2024/04/16 11:37:11;;;;;;;1.00;0.90;;;15.50;80.40;;;;;;5342158;26;20071;-82
2024/04/16 11:39:37;;;;;;;3.50;1.20;;;15.50;80.40;;;;;;5343843;26;20078;-82
2024/04/16 11:42:05;;;;;;;2.00;0.98;;;15.50;80.30;;;;;;5343892;26;20075;-82
2024/04/16 11:44:33;;;;;;;1.00;0.90;;;15.60;80.50;;;;;;5342176;26;19997;-81
2024/04/16 11:47:00;;;;;;;1.00;0.88;;;15.50;80.40;;;;;;5342103;26;20001;-82
2024/04/16 11:49:26;;;;;;;1.33;0.90;;;15.60;80.50;;;;;;5341897;26;20044;-83
2024/04/16 11:51:51;;;;;;;1.25;0.95;;;15.50;80.50;;;;;;5342031;26;20032;-83
2024/04/16 11:54:17;;;;;;;1.35;0.82;;;15.50;81.10;;;;;;5344424;26;20012;-84
2024/04/16 11:56:43;;;;;;;1.70;0.93;;;15.60;80.60;;;;;;5341981;26;20481;-83
2024/04/16 11:59:09;;;;;;;1.02;0.70;;;15.60;80.60;;;;;;5343961;26;20001;-82
2024/04/16 12:01:35;;;;;;;1.42;0.80;;;15.50;80.60;;;;;;5343553;26;20029;-85
2024/04/16 12:04:01;;;;;;;1.50;0.90;;;15.50;80.60;;;;;;5343224;26;20814;-81
2024/04/16 12:06:26;;;;;;;1.15;0.90;;;15.60;80.70;;;;;;5343495;26;19997;-82
2024/04/16 12:08:52;;;;;;;1.40;0.88;;;15.60;80.70;;;;;;5343420;26;20504;-83
2024/04/16 12:11:18;;;;;;;1.65;0.82;;;15.60;80.70;;;;;;5343214;26;19999;-82
2024/04/16 12:13:44;;;;;;;1.55;0.90;;;15.60;80.70;;;;;;5342059;26;20070;-81
2024/04/16 12:16:10;;;;;;;1.10;0.82;;;15.60;80.60;;;;;;5344052;26;20012;-83
2024/04/16 12:18:35;;;;;;;1.77;0.88;;;15.60;80.60;;;;;;5342266;26;20000;-80
2024/04/16 12:21:01;;;;;;;0.93;0.70;;;15.60;80.50;;;;;;5345418;26;19997;-82
2024/04/16 12:23:27;;;;;;;1.17;0.90;;;15.70;80.40;;;;;;5344639;26;20011;-83
2024/04/16 12:25:53;;;;;;;1.40;0.77;;;15.60;80.40;;;;;;5345155;26;20016;-82
2024/04/16 12:28:18;;;;;;;0.95;0.70;;;15.70;80.50;;;;;;5346556;26;20011;-82
2024/04/16 12:30:44;;;;;;;1.10;0.73;;;15.60;80.50;;;;;;5345857;26;19997;-84
2024/04/16 12:33:09;;;;;;;1.33;0.82;;;15.70;80.60;;;;;;5346051;26;20009;-82
2024/04/16 12:35:35;;;;;;;1.13;0.70;;;15.60;80.60;;;;;;5346597;26;20004;-84
2024/04/16 12:38:01;;;;;;;0.90;0.80;;;15.60;80.70;;;;;;5345800;26;20001;-83
2024/04/16 12:40:26;;;;;;;1.27;0.80;;;15.60;80.80;;;;;;5344484;26;20074;-84
2024/04/16 12:42:52;;;;;;;1.15;0.90;;;15.60;80.80;;;;;;5344169;26;20001;-82